createdAt,value
2019-03-17T00:01:34.101Z,2.10
2019-03-17T00:04:02.391Z,2.20
2019-03-17T00:06:30.685Z,1.90
2019-03-17T00:08:58.974Z,2.20
2019-03-17T00:11:27.220Z,1.73
2019-03-17T00:13:55.468Z,2.47
2019-03-17T00:16:23.820Z,2.00
2019-03-17T00:18:52.078Z,2.43
2019-03-17T00:21:20.458Z,1.77
2019-03-17T00:23:48.693Z,2.20
2019-03-17T00:26:16.995Z,1.57
2019-03-17T00:28:45.305Z,1.70
2019-03-17T00:31:23.164Z,1.77
2019-03-17T00:33:44.444Z,2.00
2019-03-17T00:36:12.719Z,1.97
2019-03-17T00:38:40.974Z,1.93
2019-03-17T00:41:09.249Z,1.90
2019-03-17T00:43:37.517Z,1.90
2019-03-17T00:46:05.774Z,1.97
2019-03-17T00:48:34.022Z,2.33
2019-03-17T00:51:02.316Z,2.20
2019-03-17T00:53:30.621Z,1.97
2019-03-17T00:55:58.916Z,2.07
2019-03-17T00:58:27.184Z,2.10
2019-03-17T01:00:55.459Z,2.50
2019-03-17T01:03:23.716Z,2.03
2019-03-17T01:05:51.997Z,2.27
2019-03-17T01:08:20.273Z,2.03
2019-03-17T01:10:48.548Z,2.00
2019-03-17T01:13:16.818Z,2.30
2019-03-17T01:15:45.087Z,2.03
2019-03-17T01:18:13.359Z,2.00
2019-03-17T01:20:41.633Z,2.10
2019-03-17T01:23:09.901Z,2.53
2019-03-17T01:25:38.218Z,2.77
2019-03-17T01:28:06.477Z,3.07
2019-03-17T01:30:34.745Z,3.90
2019-03-17T01:33:02.995Z,3.20
2019-03-17T01:35:32.672Z,2.90
2019-03-17T01:38:01.228Z,2.50
2019-03-17T01:40:29.499Z,2.30
2019-03-17T01:42:57.762Z,2.10
2019-03-17T01:45:26.077Z,2.20
2019-03-17T01:47:54.353Z,2.23
2019-03-17T01:50:22.604Z,2.50
2019-03-17T01:52:50.898Z,2.33
2019-03-17T01:55:19.153Z,1.80
2019-03-17T01:57:47.425Z,1.60
2019-03-17T02:00:15.784Z,1.80
2019-03-17T02:02:44.064Z,2.17
2019-03-17T02:05:21.583Z,2.27
2019-03-17T02:07:42.384Z,2.30
2019-03-17T02:10:10.729Z,2.17
2019-03-17T02:12:39.079Z,2.07
2019-03-17T02:15:08.309Z,1.90
2019-03-17T02:17:36.585Z,1.80
2019-03-17T02:20:07.388Z,1.80
2019-03-17T02:22:35.654Z,1.67
2019-03-17T02:25:04.778Z,1.50
2019-03-17T02:27:33.056Z,1.50
2019-03-17T02:30:01.307Z,1.67
2019-03-17T02:32:29.560Z,1.60
2019-03-17T02:34:57.818Z,1.70
2019-03-17T02:37:26.083Z,1.67
2019-03-17T02:39:54.476Z,1.90
2019-03-17T02:42:22.730Z,1.90
2019-03-17T02:44:51.013Z,1.80
2019-03-17T02:47:19.433Z,1.77
2019-03-17T02:49:47.711Z,1.80
2019-03-17T02:52:15.968Z,2.20
2019-03-17T02:54:44.251Z,1.83
2019-03-17T02:57:12.498Z,1.80
2019-03-17T02:59:40.780Z,2.10
2019-03-17T03:02:09.130Z,2.07
2019-03-17T03:04:37.381Z,2.00
2019-03-17T03:07:05.683Z,1.63
2019-03-17T03:09:33.971Z,1.90
2019-03-17T03:12:02.205Z,2.37
2019-03-17T03:14:30.481Z,2.20
2019-03-17T03:16:58.732Z,2.13
2019-03-17T03:19:26.999Z,1.77
2019-03-17T03:21:55.288Z,1.70
2019-03-17T03:24:23.567Z,1.80
2019-03-17T03:26:51.849Z,1.87
2019-03-17T03:29:20.121Z,1.80
2019-03-17T03:31:48.374Z,1.80
2019-03-17T03:34:16.626Z,2.10
2019-03-17T03:36:44.931Z,2.20
2019-03-17T03:39:13.498Z,1.80
2019-03-17T03:41:41.807Z,1.57
2019-03-17T03:44:10.076Z,2.10
2019-03-17T03:46:38.376Z,1.93
2019-03-17T03:49:06.712Z,1.90
2019-03-17T03:51:34.974Z,1.70
2019-03-17T03:54:03.252Z,1.93
2019-03-17T03:56:31.526Z,2.07
2019-03-17T03:58:59.795Z,2.03
2019-03-17T04:01:28.063Z,1.87
2019-03-17T04:03:56.347Z,2.03
2019-03-17T04:06:26.786Z,2.17
2019-03-17T04:08:54.684Z,2.10
2019-03-17T04:11:22.952Z,1.73
2019-03-17T04:13:51.216Z,1.50
2019-03-17T04:16:19.488Z,2.30
2019-03-17T04:18:47.761Z,2.27
2019-03-17T04:21:16.046Z,2.03
2019-03-17T04:23:44.319Z,2.37
2019-03-17T04:26:12.586Z,2.20
2019-03-17T04:28:40.871Z,1.90
2019-03-17T04:31:09.142Z,2.20
2019-03-17T04:33:37.388Z,2.10
2019-03-17T04:36:07.295Z,1.90
2019-03-17T04:38:35.561Z,2.00
2019-03-17T04:41:05.105Z,2.30
2019-03-17T04:43:33.347Z,2.37
2019-03-17T04:46:01.635Z,2.37
2019-03-17T04:48:29.887Z,1.70
2019-03-17T04:50:58.135Z,2.20
2019-03-17T04:53:26.403Z,2.13
2019-03-17T04:55:54.674Z,1.80
2019-03-17T04:58:22.948Z,2.30
2019-03-17T05:00:51.201Z,1.90
2019-03-17T05:03:19.472Z,2.00
2019-03-17T05:05:47.723Z,2.43
2019-03-17T05:08:15.981Z,2.23
2019-03-17T05:10:44.244Z,2.90
2019-03-17T05:13:12.502Z,1.80
2019-03-17T05:15:40.777Z,2.63
2019-03-17T05:18:09.026Z,2.07
2019-03-17T05:20:37.299Z,2.10
2019-03-17T05:23:06.075Z,2.40
2019-03-17T05:25:34.385Z,2.30
2019-03-17T05:28:02.653Z,2.00
2019-03-17T05:30:30.984Z,2.10
2019-03-17T05:32:59.225Z,2.23
2019-03-17T05:35:27.497Z,1.93
2019-03-17T05:37:55.763Z,2.20
2019-03-17T05:40:24.048Z,2.57
2019-03-17T05:42:52.304Z,2.43
2019-03-17T05:45:20.564Z,2.10
2019-03-17T05:47:48.819Z,2.03
2019-03-17T05:50:17.101Z,1.80
2019-03-17T05:52:45.359Z,2.33
2019-03-17T05:55:13.695Z,2.20
2019-03-17T05:57:41.933Z,2.23
2019-03-17T06:00:16.204Z,2.50
2019-03-17T06:02:44.524Z,2.00
2019-03-17T06:05:12.802Z,1.77
2019-03-17T06:07:41.052Z,2.17
2019-03-17T06:10:09.383Z,2.03
2019-03-17T06:12:37.649Z,2.33
2019-03-17T06:15:10.991Z,2.27
2019-03-17T06:17:39.250Z,2.00
2019-03-17T06:20:10.190Z,2.00
2019-03-17T06:22:38.439Z,2.10
2019-03-17T06:25:09.802Z,2.20
2019-03-17T06:27:38.073Z,2.20
2019-03-17T06:30:11.895Z,2.00
2019-03-17T06:32:40.185Z,2.40
2019-03-17T06:35:08.452Z,2.63
2019-03-17T06:37:36.715Z,2.77
2019-03-17T06:40:15.368Z,2.43
2019-03-17T06:42:43.643Z,2.03
2019-03-17T06:45:11.928Z,1.93
2019-03-17T06:47:40.175Z,2.60
2019-03-17T06:50:11.630Z,2.13
2019-03-17T06:52:39.901Z,2.20
2019-03-17T06:55:10.905Z,2.33
2019-03-17T06:57:39.181Z,2.97
2019-03-17T07:00:09.901Z,2.20
2019-03-17T07:02:38.161Z,2.90
2019-03-17T07:05:07.812Z,3.60
2019-03-17T07:07:43.944Z,1.97
2019-03-17T07:10:08.204Z,2.67
2019-03-17T07:12:36.469Z,3.30
2019-03-17T07:15:07.916Z,2.93
2019-03-17T07:17:36.171Z,2.70
2019-03-17T07:20:07.244Z,2.83
2019-03-17T07:22:35.491Z,2.90
2019-03-17T07:25:04.434Z,2.80
2019-03-17T07:27:32.703Z,2.90
2019-03-17T07:30:00.962Z,2.87
2019-03-17T07:32:29.251Z,3.30
2019-03-17T07:34:57.521Z,2.80
2019-03-17T07:37:25.782Z,2.53
2019-03-17T07:39:54.044Z,2.90
2019-03-17T07:42:22.337Z,2.60
2019-03-17T07:44:50.608Z,2.60
2019-03-17T07:47:18.876Z,2.70
2019-03-17T07:49:47.134Z,2.93
2019-03-17T07:52:15.413Z,2.70
2019-03-17T07:54:43.710Z,2.70
2019-03-17T07:57:11.978Z,2.83
2019-03-17T07:59:40.243Z,3.53
2019-03-17T08:02:08.508Z,3.30
2019-03-17T08:04:42.883Z,2.50
2019-03-17T08:07:06.752Z,3.63
2019-03-17T08:09:35.024Z,3.27
2019-03-17T08:12:03.282Z,3.03
2019-03-17T08:14:31.540Z,3.20
2019-03-17T08:16:59.811Z,3.40
2019-03-17T08:19:28.082Z,3.23
2019-03-17T08:21:56.350Z,3.80
2019-03-17T08:24:24.598Z,3.60
2019-03-17T08:26:52.878Z,3.10
2019-03-17T08:29:21.155Z,3.30
2019-03-17T08:31:49.415Z,2.90
2019-03-17T08:34:17.666Z,3.00
2019-03-17T08:36:45.940Z,3.80
2019-03-17T08:39:14.257Z,2.83
2019-03-17T08:41:42.487Z,3.13
2019-03-17T08:44:10.740Z,3.10
2019-03-17T08:46:39.015Z,3.30
2019-03-17T08:49:07.292Z,3.20
2019-03-17T08:51:35.783Z,2.30
2019-03-17T08:54:04.143Z,2.47
2019-03-17T08:56:32.415Z,3.50
2019-03-17T08:59:00.670Z,2.87
2019-03-17T09:01:29.022Z,2.60
2019-03-17T09:03:57.279Z,2.90
2019-03-17T09:06:25.605Z,2.57
2019-03-17T09:08:53.805Z,2.73
2019-03-17T09:11:22.059Z,3.20
2019-03-17T09:13:50.333Z,3.03
2019-03-17T09:16:18.597Z,3.57
2019-03-17T09:18:46.888Z,3.20
2019-03-17T09:21:15.138Z,2.97
2019-03-17T09:23:43.423Z,3.13
2019-03-17T09:26:11.690Z,3.17
2019-03-17T09:28:39.968Z,2.53
2019-03-17T09:31:08.240Z,3.30
2019-03-17T09:33:36.536Z,2.33
2019-03-17T09:36:04.820Z,2.73
2019-03-17T09:38:33.088Z,2.13
2019-03-17T09:41:01.356Z,3.13
2019-03-17T09:43:29.687Z,2.93
2019-03-17T09:45:57.960Z,2.67
2019-03-17T09:48:26.286Z,2.43
2019-03-17T09:50:54.579Z,3.10
2019-03-17T09:53:22.822Z,2.87
2019-03-17T09:55:51.091Z,3.47
2019-03-17T09:58:19.373Z,2.90
2019-03-17T10:00:47.664Z,2.60
2019-03-17T10:03:15.926Z,3.47
2019-03-17T10:05:44.232Z,3.10
2019-03-17T10:08:12.480Z,2.83
2019-03-17T10:10:40.743Z,2.63
2019-03-17T10:13:09.000Z,2.87
2019-03-17T10:15:37.296Z,2.60
2019-03-17T10:18:05.567Z,3.07
2019-03-17T10:20:33.855Z,2.40
2019-03-17T10:23:02.123Z,2.70
2019-03-17T10:25:31.225Z,2.50
2019-03-17T10:27:59.487Z,2.70
2019-03-17T10:30:27.771Z,2.30
2019-03-17T10:32:56.041Z,4.17
2019-03-17T10:35:24.383Z,3.27
2019-03-17T10:37:52.658Z,2.90
2019-03-17T10:40:22.642Z,3.53
2019-03-17T10:42:50.999Z,3.23
2019-03-17T10:45:19.332Z,2.83
2019-03-17T10:47:47.674Z,2.90
2019-03-17T10:50:17.088Z,3.17
2019-03-17T10:52:45.349Z,3.27
2019-03-17T10:55:13.790Z,3.03
2019-03-17T10:57:42.054Z,3.33
2019-03-17T11:00:13.136Z,3.13
2019-03-17T11:02:41.383Z,3.20
2019-03-17T11:05:10.128Z,2.93
2019-03-17T11:07:38.559Z,3.27
2019-03-17T11:10:09.151Z,4.03
2019-03-17T11:12:37.420Z,3.70
2019-03-17T11:15:13.742Z,3.83
2019-03-17T11:17:42.022Z,3.77
2019-03-17T11:20:11.740Z,4.50
2019-03-17T11:22:40.088Z,4.50
2019-03-17T11:25:13.906Z,4.30
2019-03-17T11:27:42.258Z,3.80
2019-03-17T11:30:13.916Z,4.40
2019-03-17T11:32:42.284Z,4.50
2019-03-17T11:35:10.706Z,4.87
2019-03-17T11:37:38.985Z,5.47
2019-03-17T11:40:13.101Z,4.50
2019-03-17T11:42:41.374Z,6.40
2019-03-17T11:45:14.452Z,5.47
2019-03-17T11:47:42.971Z,5.27
2019-03-17T11:50:18.928Z,3.40
2019-03-17T11:52:47.344Z,2.60
2019-03-17T11:55:15.585Z,1.23
2019-03-17T11:57:44.035Z,1.30
2019-03-17T12:00:20.526Z,0.67
2019-03-17T12:02:48.778Z,0.70
2019-03-17T12:05:17.118Z,0.87
2019-03-17T12:07:45.468Z,0.83
2019-03-17T12:10:21.733Z,0.60
2019-03-17T12:12:50.068Z,0.90
2019-03-17T12:15:31.758Z,0.90
2019-03-17T12:18:00.051Z,1.20
2019-03-17T12:20:28.336Z,0.90
2019-03-17T12:22:56.908Z,0.97
2019-03-17T12:25:25.166Z,0.97
2019-03-17T12:27:53.493Z,0.73
2019-03-17T12:30:25.492Z,0.80
2019-03-17T12:32:54.482Z,0.70
2019-03-17T12:35:22.814Z,0.83
2019-03-17T12:37:51.157Z,0.90
2019-03-17T12:40:19.492Z,0.90
2019-03-17T12:42:47.752Z,0.93
2019-03-17T12:45:16.202Z,0.73
2019-03-17T12:47:44.567Z,0.90
2019-03-17T12:50:14.668Z,0.90
2019-03-17T12:52:43.172Z,0.93
2019-03-17T12:55:11.525Z,0.80
2019-03-17T12:57:39.826Z,0.90
2019-03-17T13:00:16.280Z,0.97
2019-03-17T13:02:44.607Z,0.87
2019-03-17T13:05:13.303Z,1.20
2019-03-17T13:07:41.584Z,1.10
2019-03-17T13:10:18.191Z,1.60
2019-03-17T13:12:46.450Z,1.63
2019-03-17T13:15:14.796Z,1.87
2019-03-17T13:17:43.082Z,1.23
2019-03-17T13:20:14.523Z,0.90
2019-03-17T13:22:42.799Z,1.30
2019-03-17T13:25:12.131Z,1.90
2019-03-17T13:27:40.390Z,2.10
2019-03-17T13:30:13.764Z,1.80
2019-03-17T13:32:42.043Z,1.97
2019-03-17T13:35:10.891Z,1.53
2019-03-17T13:37:39.194Z,1.37
2019-03-17T13:40:10.354Z,1.40
2019-03-17T13:42:38.687Z,1.63
2019-03-17T13:45:09.802Z,1.30
2019-03-17T13:47:38.071Z,0.90
2019-03-17T13:50:09.571Z,1.27
2019-03-17T13:52:37.815Z,1.33
2019-03-17T13:55:06.147Z,1.23
2019-03-17T13:57:34.415Z,1.20
2019-03-17T14:00:02.750Z,1.30
2019-03-17T14:02:31.038Z,1.07
2019-03-17T14:04:59.280Z,1.77
2019-03-17T14:07:27.580Z,1.37
2019-03-17T14:09:55.836Z,1.60
2019-03-17T14:12:24.107Z,2.00
2019-03-17T14:14:52.366Z,1.37
2019-03-17T14:17:22.946Z,3.60
2019-03-17T14:19:51.214Z,1.87
2019-03-17T14:22:19.504Z,1.47
2019-03-17T14:24:48.110Z,1.23
2019-03-17T14:27:16.563Z,1.43
2019-03-17T14:29:44.849Z,1.57
2019-03-17T14:32:13.134Z,1.73
2019-03-17T14:34:41.408Z,1.60
2019-03-17T14:37:09.707Z,1.97
2019-03-17T14:39:37.991Z,1.20
2019-03-17T14:42:06.271Z,1.40
2019-03-17T14:44:36.180Z,1.13
2019-03-17T14:47:04.593Z,1.00
2019-03-17T14:49:32.948Z,1.20
2019-03-17T14:52:01.211Z,0.90
2019-03-17T14:54:29.464Z,1.23
2019-03-17T14:56:57.745Z,1.50
2019-03-17T14:59:26.011Z,1.10
2019-03-17T15:01:54.299Z,1.10
2019-03-17T15:04:22.586Z,1.87
2019-03-17T15:06:50.945Z,1.27
2019-03-17T15:09:19.160Z,0.93
2019-03-17T15:11:47.438Z,1.80
2019-03-17T15:14:15.725Z,1.17
2019-03-17T15:16:43.986Z,2.40
2019-03-17T15:19:12.268Z,1.50
2019-03-17T15:21:40.521Z,2.17
2019-03-17T15:24:08.799Z,2.13
2019-03-17T15:26:37.061Z,2.10
2019-03-17T15:29:05.340Z,1.30
2019-03-17T15:31:33.606Z,1.40
2019-03-17T15:34:01.990Z,1.60
2019-03-17T15:36:30.258Z,1.30
2019-03-17T15:38:58.534Z,1.50
2019-03-17T15:41:26.802Z,1.40
2019-03-17T15:43:55.109Z,1.50
2019-03-17T15:46:23.374Z,1.47
2019-03-17T15:48:51.671Z,1.50
2019-03-17T15:51:20.957Z,1.20
2019-03-17T15:53:49.277Z,1.17
2019-03-17T15:56:17.568Z,2.60
2019-03-17T15:58:45.801Z,2.50
2019-03-17T16:01:14.079Z,1.70
2019-03-17T16:03:42.364Z,1.60
2019-03-17T16:06:10.634Z,1.23
2019-03-17T16:08:38.917Z,1.57
2019-03-17T16:11:07.301Z,1.13
2019-03-17T16:13:35.634Z,1.30
2019-03-17T16:16:03.908Z,1.80
2019-03-17T16:18:32.192Z,2.17
2019-03-17T16:21:00.482Z,1.93
2019-03-17T16:23:28.820Z,1.77
2019-03-17T16:25:57.075Z,1.83
2019-03-17T16:28:25.375Z,1.80
2019-03-17T16:30:53.641Z,2.03
2019-03-17T16:33:21.913Z,2.10
2019-03-17T16:35:50.193Z,2.33
2019-03-17T16:38:18.485Z,2.40
2019-03-17T16:40:46.752Z,3.17
2019-03-17T16:43:15.089Z,2.80
2019-03-17T16:45:43.357Z,2.40
2019-03-17T16:48:11.632Z,3.33
2019-03-17T16:50:39.895Z,2.40
2019-03-17T16:53:08.170Z,2.30
2019-03-17T16:55:36.418Z,2.27
2019-03-17T16:58:05.050Z,1.90
2019-03-17T17:00:33.333Z,1.87
2019-03-17T17:03:01.611Z,1.60
2019-03-17T17:05:29.895Z,1.60
2019-03-17T17:07:58.236Z,2.40
2019-03-17T17:10:30.587Z,1.53
2019-03-17T17:12:58.994Z,1.70
2019-03-17T17:15:32.123Z,3.33
2019-03-17T17:18:00.454Z,3.23
2019-03-17T17:20:31.903Z,4.67
2019-03-17T17:23:00.183Z,3.80
2019-03-17T17:25:28.459Z,2.30
2019-03-17T17:27:56.827Z,2.40
2019-03-17T17:30:25.068Z,2.50
2019-03-17T17:32:53.428Z,2.40
2019-03-17T17:35:21.752Z,2.87
2019-03-17T17:37:50.013Z,2.13
2019-03-17T17:40:19.750Z,2.43
2019-03-17T17:42:48.034Z,2.00
2019-03-17T17:45:18.157Z,1.20
2019-03-17T17:47:46.527Z,1.03
2019-03-17T17:50:19.379Z,1.20
2019-03-17T17:52:47.647Z,1.37
2019-03-17T17:55:15.958Z,1.40
2019-03-17T17:57:44.314Z,1.20
2019-03-17T18:00:19.531Z,1.50
2019-03-17T18:02:47.862Z,1.63
2019-03-17T18:05:16.174Z,1.60
2019-03-17T18:07:44.442Z,1.90
2019-03-17T18:10:20.125Z,2.00
2019-03-17T18:12:48.762Z,1.80
2019-03-17T18:15:21.876Z,1.40
2019-03-17T18:17:50.139Z,1.50
2019-03-17T18:20:18.447Z,1.37
2019-03-17T18:22:46.710Z,1.70
2019-03-17T18:25:19.946Z,1.43
2019-03-17T18:27:48.201Z,1.70
2019-03-17T18:30:19.105Z,1.90
2019-03-17T18:32:47.429Z,1.60
2019-03-17T18:35:15.783Z,1.50
2019-03-17T18:37:44.110Z,2.03
2019-03-17T18:40:15.170Z,2.27
2019-03-17T18:42:43.732Z,2.03
2019-03-17T18:45:15.206Z,1.90
2019-03-17T18:47:43.543Z,1.47
2019-03-17T18:50:20.306Z,2.27
2019-03-17T18:52:43.652Z,2.47
2019-03-17T18:55:14.118Z,1.93
2019-03-17T18:57:42.476Z,1.70
2019-03-17T19:00:14.024Z,1.90
2019-03-17T19:02:42.299Z,2.10
2019-03-17T19:05:12.988Z,2.17
2019-03-17T19:07:41.242Z,1.50
2019-03-17T19:10:12.369Z,1.63
2019-03-17T19:12:45.548Z,2.80
2019-03-17T19:15:16.367Z,3.80
2019-03-17T19:17:44.656Z,3.77
2019-03-17T19:20:18.822Z,2.63
2019-03-17T19:22:47.510Z,3.10
2019-03-17T19:25:25.596Z,3.10
2019-03-17T19:27:53.851Z,2.27
2019-03-17T19:30:22.966Z,2.57
2019-03-17T19:32:51.346Z,3.60
2019-03-17T19:35:19.742Z,5.37
2019-03-17T19:37:48.100Z,4.80
2019-03-17T19:40:21.414Z,5.17
2019-03-17T19:42:58.632Z,4.43
2019-03-17T19:45:19.784Z,4.37
2019-03-17T19:47:48.020Z,2.07
2019-03-17T19:50:18.587Z,2.77
2019-03-17T19:52:46.870Z,2.03
2019-03-17T19:55:15.126Z,1.90
2019-03-17T19:57:43.388Z,1.90
2019-03-17T20:00:14.749Z,1.53
2019-03-17T20:02:43.256Z,2.10
2019-03-17T20:05:11.533Z,2.23
2019-03-17T20:07:39.795Z,2.10
2019-03-17T20:10:22.699Z,2.10
2019-03-17T20:12:50.973Z,2.60
2019-03-17T20:15:19.230Z,2.10
2019-03-17T20:17:47.518Z,4.17
2019-03-17T20:20:15.869Z,3.00
2019-03-17T20:22:44.258Z,2.83
2019-03-17T20:25:12.593Z,2.80
2019-03-17T20:27:40.951Z,4.70
2019-03-17T20:30:16.724Z,4.20
2019-03-17T20:32:46.247Z,7.30
2019-03-17T20:35:14.800Z,4.20
2019-03-17T20:37:43.163Z,3.53
2019-03-17T20:40:15.891Z,7.90
2019-03-17T20:42:44.256Z,9.47
2019-03-17T20:45:17.803Z,5.37
2019-03-17T20:47:46.645Z,3.40
2019-03-17T20:50:16.483Z,6.30
2019-03-17T20:52:44.785Z,5.43
2019-03-17T20:55:13.790Z,3.23
2019-03-17T20:57:42.229Z,12.87
2019-03-17T21:00:13.266Z,16.70
2019-03-17T21:02:41.542Z,5.80
2019-03-17T21:05:11.462Z,5.80
2019-03-17T21:07:40.496Z,6.77
2019-03-17T21:10:11.015Z,5.10
2019-03-17T21:12:39.309Z,3.33
2019-03-17T21:15:13.332Z,2.60
2019-03-17T21:17:41.655Z,3.00
2019-03-17T21:20:14.968Z,1.80
2019-03-17T21:22:43.676Z,1.60
2019-03-17T21:25:12.427Z,1.63
2019-03-17T21:27:40.772Z,1.60
2019-03-17T21:30:17.550Z,1.63
2019-03-17T21:32:46.213Z,1.40
2019-03-17T21:35:14.486Z,1.27
2019-03-17T21:37:42.782Z,1.30
2019-03-17T21:40:12.279Z,1.40
2019-03-17T21:42:40.591Z,1.10
2019-03-17T21:45:11.280Z,0.80
2019-03-17T21:47:39.569Z,1.07
2019-03-17T21:50:13.613Z,1.30
2019-03-17T21:52:44.115Z,2.17
2019-03-17T21:55:13.645Z,1.30
2019-03-17T21:57:41.997Z,0.93
2019-03-17T22:00:15.860Z,1.20
2019-03-17T22:02:44.171Z,0.80
2019-03-17T22:05:13.293Z,1.00
2019-03-17T22:07:49.680Z,1.20
2019-03-17T22:10:13.965Z,1.20
2019-03-17T22:12:42.345Z,1.10
2019-03-17T22:15:12.702Z,1.07
2019-03-17T22:17:40.978Z,1.10
2019-03-17T22:20:13.448Z,0.97
2019-03-17T22:22:41.737Z,0.80
2019-03-17T22:25:11.348Z,1.00
2019-03-17T22:27:39.682Z,1.07
2019-03-17T22:30:13.960Z,1.23
2019-03-17T22:32:42.304Z,1.40
2019-03-17T22:35:10.970Z,1.63
2019-03-17T22:37:39.296Z,1.17
2019-03-17T22:40:18.551Z,1.40
2019-03-17T22:42:46.873Z,1.10
2019-03-17T22:45:15.971Z,1.10
2019-03-17T22:47:44.323Z,1.20
2019-03-17T22:50:14.413Z,1.10
2019-03-17T22:52:42.720Z,1.40
2019-03-17T22:55:11.351Z,1.10
2019-03-17T22:57:39.711Z,1.10
2019-03-17T23:00:36.537Z,1.00
2019-03-17T23:03:05.615Z,0.83
2019-03-17T23:05:33.933Z,1.33
2019-03-17T23:08:02.199Z,1.63
2019-03-17T23:10:30.458Z,1.50
2019-03-17T23:12:59.095Z,1.70
2019-03-17T23:15:27.360Z,1.63
2019-03-17T23:17:55.615Z,1.50
2019-03-17T23:20:23.908Z,1.90
2019-03-17T23:22:52.178Z,1.83
2019-03-17T23:25:20.499Z,2.03
2019-03-17T23:27:48.776Z,3.07
2019-03-17T23:30:19.498Z,2.20
2019-03-17T23:32:49.309Z,2.17
2019-03-17T23:35:18.002Z,2.87
2019-03-17T23:37:46.236Z,2.50
2019-03-17T23:40:16.662Z,3.30
2019-03-17T23:42:44.930Z,3.20
2019-03-17T23:45:13.349Z,3.33
2019-03-17T23:47:41.609Z,3.07
2019-03-17T23:50:12.479Z,3.50
2019-03-17T23:52:40.736Z,4.00
2019-03-17T23:55:34.375Z,4.37
2019-03-17T23:58:02.641Z,3.70
